Flight Track Log - Related Links

Times and Time Zones

All times are in EDT time to prevent confusion due to time zone crossing. See the RPA3275 flight status page for this flight to view local times or setup timezone preferences in your user account.

Time Position Orientation Groundspeed Altitude Reporting Facility
EDT Latitude Longitude Course Direction KTS MPH feet Rate Location/Type
Mon 07:00:25 AM 42.7672 -73.8061 220° Southwest 154 177 1,500  Level Boston Center
Mon 07:01:19 AM 42.7983 -73.8378 323° Northwest 191 220 3,200 2,362 Climbing Boston Center
Mon 07:02:32 AM 42.7867 -73.9311 260° West 248 285 6,500 2,842 Climbing Boston Center
Mon 07:03:00 AM 42.7333 -74.2570 270° West  Level FlightAware Approximate
Mon 07:03:32 AM 42.7792 -74.0214 264° West 253 291 9,500  Level Boston Center
Mon 07:04:00 AM 42.6992 -74.3530 220° Southwest  Level FlightAware Approximate
Mon 07:04:32 AM 42.7675 -74.1144 260° West 253 291 11,800  Level Boston Center
Mon 07:05:00 AM 42.6346 -74.4258 220° Southwest  Level FlightAware Approximate
Mon 07:05:32 AM 42.7553 -74.2300 262° West 274 315 14,000  Level Boston Center
Mon 07:06:32 AM 42.7331 -74.3197 251° West 281 323 15,800 2,050 Climbing Boston Center
Mon 07:07:32 AM 42.6669 -74.3997 222° Southwest 289 333 18,100 1,600 Climbing Boston Center
Mon 07:08:32 AM 42.6075 -74.4683 220° Southwest 306 352 19,000 450 Climbing Boston Center
Mon 07:09:32 AM 42.5372 -74.5478 220° Southwest 311 358 19,000  Level Boston Center
Mon 07:10:32 AM 42.4797 -74.6133 220° Southwest 311 358 19,000  Level Boston Center
Mon 07:12:41 AM 42.3367 -74.7767 220° Southwest 291 335 19,000  Level New York Center
Mon 07:13:41 AM 42.2739 -74.8486 220° Southwest 291 335 19,000  Level New York Center
Mon 07:14:42 AM 42.2108 -74.9231 221° Southwest 291 335 19,000  Level New York Center
Mon 07:15:42 AM 42.1419 -74.9914 216° Southwest 298 343 19,000  Level New York Center
Mon 07:16:42 AM 42.0775 -75.0458 212° Southwest 311 358 19,000  Level New York Center
Mon 07:17:41 AM 42.0067 -75.1028 211° Southwest 311 358 19,000  Level New York Center
Mon 07:18:42 AM 41.9272 -75.1672 211° Southwest 311 358 19,000  Level New York Center
Mon 07:19:43 AM 41.8564 -75.2236 211° Southwest 311 358 19,000 -504 Level New York Center
Mon 07:20:41 AM 41.8056 -75.3067 231° Southwest 299 344 18,000 -1,068 Descending New York Center
Mon 07:21:41 AM 41.7792 -75.3964 249° West 280 322 16,900 -1,100 Descending New York Center
Mon 07:22:41 AM 41.7483 -75.4917 247° West 286 329 15,800 -1,150 Descending New York Center
Mon 07:23:41 AM 41.7128 -75.6003 246° West 286 329 14,600 -1,091 Descending New York Center
Mon 07:24:42 AM 41.6797 -75.6950 245° Southwest 291 335 13,600 -893 Descending New York Center
Mon 07:25:42 AM 41.6467 -75.7897 245° Southwest 291 335 12,800 -750 Descending New York Center
Mon 07:26:42 AM 41.5800 -75.8347 207° Southwest 279 321 12,100 -397 Descending New York Center
Mon 07:27:43 AM 41.5044 -75.8042 163° South 271 312 12,000 -50 Descending New York Center
Mon 07:28:43 AM 41.4208 -75.7592 158° South 297 342 12,000  Level New York Center
Mon 07:29:41 AM 41.3350 -75.7197 161° South 315 362 12,000 -508 Level New York Center
Mon 07:30:41 AM 41.2469 -75.6856 164° South 310 357 11,000 -992 Descending New York Center
Mon 07:31:42 AM 41.1708 -75.6606 166° South 310 357 10,000 -496 Descending New York Center
Mon 07:32:42 AM 41.0867 -75.6325 166° South 316 364 10,000  Level New York Center
Mon 07:33:43 AM 40.9939 -75.6039 167° South 316 364 10,000  Level New York Center
Mon 07:34:43 AM 40.9097 -75.5786 167° South 316 364 10,000  Level New York Center
Mon 07:35:41 AM 40.8294 -75.5511 165° South 311 358 10,000  Level New York Center
Mon 07:36:41 AM 40.7553 -75.5294 168° South 311 358 10,000  Level New York Center
Mon 07:37:42 AM 40.6647 -75.4986 166° South 311 358 10,000  Level New York Center
Mon 07:38:42 AM 40.5844 -75.4739 167° South 311 358 10,000  Level New York Center
Mon 07:39:41 AM 40.5167 -75.4531 167° South 293 337 10,000 -202 Level New York Center
Mon 07:40:41 AM 40.4425 -75.4289 166° South 288 331 9,600 -1,289 Descending New York Center
Mon 07:41:42 AM 40.3631 -75.3825 156° South 282 325 7,400 -1,289 Descending New York Center
Mon 07:42:42 AM 40.3011 -75.3158 141° Southeast 282 325 7,000 -198 Descending New York Center
Mon 07:43:43 AM 40.2456 -75.2389 133° Southeast 289 333 7,000 -347 Level New York Center
Mon 07:44:43 AM 40.1897 -75.1728 138° Southeast 300 345 6,300 -508 Descending New York Center
Mon 07:45:41 AM 40.1306 -75.0875 132° Southeast 293 337 6,000 -151 Descending New York Center
Mon 07:46:42 AM 40.0789 -75.0136 132° Southeast 286 329 6,000 -148 Level New York Center
Mon 07:47:43 AM 40.0200 -74.9750 153° Southeast 255 293 5,700 -884 Descending New York Center
Mon 07:48:51 AM 39.9667 -74.9500 160° South 188 216 4,100 -1,172 Descending Philadelphia TRACON
Mon 07:49:51 AM 39.9333 -75.0000 229° Southwest 162 186 3,200 -750 Descending Philadelphia TRACON
Mon 07:50:51 AM 39.9167 -75.0500 247° West 153 176 2,600 -595 Descending Philadelphia TRACON
Mon 07:51:52 AM 39.9000 -75.1000 247° West 156 180 2,000 -590 Descending Philadelphia TRACON

Login

Don't have an account? Register now (free) for customized features, flight alerts, and more!